Aérodrome :
LOGIN :

S'inscrire | Disclaimer

   EN    FR    IT 

 










Légende :    VFR   VFR Marginal   IFR   IFR Intensif   IFR Très Intensif
Visi : 
Plafond : 
>= 8 km
>= 3000ft
5 à 8 km
1000 à 3000 ft
1500m à 5 km
500 à 1000 ft
800 à 1500m
200 à 500 ft
< 800m
< 200 ft
Symboles :   Orages  Brouillard  Fortes neiges  Fortes précipitations  Vent > 20 kt
SIGMETs :   Divers  Orages  Givrage  Turbulence  Onde Orograph.  Cendres Volcan.







- Altitude de l'aérodrome : 1213 ft
- Code IATA : SCQ


LEST - Santiago de Compostela

DERNIER METAR :
  • 172300Z 36005KT 320V020 CAVOK 15/14 Q1017 NOSIG

METARs EXPIRÉS :
  • 172230Z 01003KT CAVOK 15/14 Q1017 NOSIG
  • 172200Z 01003KT CAVOK 15/15 Q1017 NOSIG
  • 172130Z 01005KT CAVOK 16/15 Q1017 NOSIG
  • 172100Z 36005KT 320V030 9999 FEW020 16/15 Q1017 NOSIG
  • 172030Z 36004KT 300V030 9999 FEW020 17/15 Q1017 NOSIG

TAF AMD TAF LEST
Valide du 17 à 20h jusqu'au 18 à 18h UTC


172044Z 1720/1818 01008KT 9999 SCT020 TX21/1814Z TN14/1805Z
PROB40
TEMPO 1800/1807 3000 BR BKN005
PROB40
TEMPO 1813/1818 RA SHRA SCT030TCU
Pas de NOTAMs connus pour ce terrain.



MET'MAP, la Météo Aéronautique d'un coup d'oeil ! - Copyright ORBIFLY Décembre 2007 - Disclaimer

ORBIFLY MET'MAP TEAM :

Programmation & Développement : Alexandra Zaïnal
Conception & Développement : Baudouin d'Aumeries
Co-Programmation & Développement : Marc-Olivier Méhu
Soutien technique & logistique : Manuel Goepfert

Contact : metmap@orbifly.com




SOURCES & CREDITS :

   NOAA